sensor_id;sensor_type;location;lat;lon;timestamp;pressure;altitude;pressure_sealevel;temperature;humidity
61488;BME280;47351;53.326;-6.298;2023-02-13T00:01:07;102848.11;;;6.53;75.88
61488;BME280;47351;53.326;-6.298;2023-02-13T00:04:18;102845.55;;;6.50;75.80
61488;BME280;47351;53.326;-6.298;2023-02-13T00:07:30;102843.20;;;6.48;75.73
61488;BME280;47351;53.326;-6.298;2023-02-13T00:10:40;102844.27;;;6.44;75.82
61488;BME280;47351;53.326;-6.298;2023-02-13T00:13:51;102850.64;;;6.41;75.92
61488;BME280;47351;53.326;-6.298;2023-02-13T00:17:03;102845.31;;;6.38;75.98
61488;BME280;47351;53.326;-6.298;2023-02-13T00:20:14;102847.10;;;6.34;76.02
61488;BME280;47351;53.326;-6.298;2023-02-13T00:23:25;102841.48;;;6.30;76.11
61488;BME280;47351;53.326;-6.298;2023-02-13T00:26:36;102842.42;;;6.25;76.24
61488;BME280;47351;53.326;-6.298;2023-02-13T00:29:48;102843.90;;;6.20;76.64
61488;BME280;47351;53.326;-6.298;2023-02-13T00:32:59;102848.08;;;6.18;76.87
61488;BME280;47351;53.326;-6.298;2023-02-13T00:36:07;102844.36;;;6.18;77.21
61488;BME280;47351;53.326;-6.298;2023-02-13T00:39:19;102845.89;;;6.20;77.37
61488;BME280;47351;53.326;-6.298;2023-02-13T00:42:29;102845.41;;;6.22;77.25
61488;BME280;47351;53.326;-6.298;2023-02-13T00:45:43;102848.86;;;6.28;77.32
61488;BME280;47351;53.326;-6.298;2023-02-13T00:49:01;102848.92;;;6.33;77.13
61488;BME280;47351;53.326;-6.298;2023-02-13T00:52:12;102841.65;;;6.40;76.97
61488;BME280;47351;53.326;-6.298;2023-02-13T00:55:23;102837.63;;;6.46;76.85
61488;BME280;47351;53.326;-6.298;2023-02-13T00:58:34;102838.73;;;6.52;76.76
61488;BME280;47351;53.326;-6.298;2023-02-13T01:01:45;102836.11;;;6.58;76.69
61488;BME280;47351;53.326;-6.298;2023-02-13T01:04:56;102834.52;;;6.65;76.73
61488;BME280;47351;53.326;-6.298;2023-02-13T01:08:08;102839.52;;;6.71;76.65
61488;BME280;47351;53.326;-6.298;2023-02-13T01:11:19;102840.65;;;6.76;76.48
61488;BME280;47351;53.326;-6.298;2023-02-13T01:14:21;102839.45;;;6.79;76.33
61488;BME280;47351;53.326;-6.298;2023-02-13T01:17:32;102835.95;;;6.81;76.35
61488;BME280;47351;53.326;-6.298;2023-02-13T01:20:43;102829.39;;;6.82;76.14
61488;BME280;47351;53.326;-6.298;2023-02-13T01:23:55;102826.23;;;6.80;76.18
61488;BME280;47351;53.326;-6.298;2023-02-13T01:27:07;102830.79;;;6.78;76.15
61488;BME280;47351;53.326;-6.298;2023-02-13T01:30:18;102824.42;;;6.74;76.16
61488;BME280;47351;53.326;-6.298;2023-02-13T01:33:29;102820.64;;;6.69;76.27
61488;BME280;47351;53.326;-6.298;2023-02-13T01:36:40;102817.64;;;6.65;76.46
61488;BME280;47351;53.326;-6.298;2023-02-13T01:39:51;102818.56;;;6.61;76.46
61488;BME280;47351;53.326;-6.298;2023-02-13T01:43:03;102817.39;;;6.57;76.56
61488;BME280;47351;53.326;-6.298;2023-02-13T01:46:05;102811.45;;;6.55;76.71
61488;BME280;47351;53.326;-6.298;2023-02-13T01:49:17;102815.70;;;6.55;76.81
61488;BME280;47351;53.326;-6.298;2023-02-13T01:52:29;102817.78;;;6.56;76.75
61488;BME280;47351;53.326;-6.298;2023-02-13T01:55:42;102814.40;;;6.56;76.66
61488;BME280;47351;53.326;-6.298;2023-02-13T01:58:56;102807.84;;;6.56;76.67
61488;BME280;47351;53.326;-6.298;2023-02-13T02:02:08;102809.90;;;6.58;76.60
61488;BME280;47351;53.326;-6.298;2023-02-13T02:05:21;102805.35;;;6.56;76.56
61488;BME280;47351;53.326;-6.298;2023-02-13T02:08:32;102801.15;;;6.52;76.66
61488;BME280;47351;53.326;-6.298;2023-02-13T02:11:49;102804.52;;;6.48;76.69
61488;BME280;47351;53.326;-6.298;2023-02-13T02:14:55;102804.30;;;6.42;76.72
61488;BME280;47351;53.326;-6.298;2023-02-13T02:18:09;102802.78;;;6.37;76.80
61488;BME280;47351;53.326;-6.298;2023-02-13T02:21:30;102804.16;;;6.31;76.74
61488;BME280;47351;53.326;-6.298;2023-02-13T02:24:52;102800.12;;;6.23;76.73
61488;BME280;47351;53.326;-6.298;2023-02-13T02:28:29;102793.54;;;6.14;76.73
61488;BME280;47351;53.326;-6.298;2023-02-13T02:32:04;102788.78;;;6.02;76.72
61488;BME280;47351;53.326;-6.298;2023-02-13T02:35:18;102786.99;;;5.91;76.81
61488;BME280;47351;53.326;-6.298;2023-02-13T02:38:39;102788.23;;;5.81;76.90
61488;BME280;47351;53.326;-6.298;2023-02-13T02:41:57;102786.79;;;5.71;77.09
61488;BME280;47351;53.326;-6.298;2023-02-13T02:45:06;102789.00;;;5.62;77.24
61488;BME280;47351;53.326;-6.298;2023-02-13T02:48:21;102787.59;;;5.54;77.53
61488;BME280;47351;53.326;-6.298;2023-02-13T02:52:11;102782.11;;;5.47;77.71
61488;BME280;47351;53.326;-6.298;2023-02-13T02:55:21;102775.64;;;5.42;77.99
61488;BME280;47351;53.326;-6.298;2023-02-13T02:58:31;102780.38;;;5.39;78.14
61488;BME280;47351;53.326;-6.298;2023-02-13T03:01:55;102778.52;;;5.33;78.03
61488;BME280;47351;53.326;-6.298;2023-02-13T03:05:26;102772.73;;;5.25;77.94
61488;BME280;47351;53.326;-6.298;2023-02-13T03:09:10;102770.98;;;5.17;78.18
61488;BME280;47351;53.326;-6.298;2023-02-13T03:12:43;102774.32;;;5.09;78.27
61488;BME280;47351;53.326;-6.298;2023-02-13T03:16:19;102773.63;;;5.01;78.33
61488;BME280;47351;53.326;-6.298;2023-02-13T03:19:54;102770.07;;;4.95;78.52
61488;BME280;47351;53.326;-6.298;2023-02-13T03:23:19;102767.60;;;4.87;78.48
61488;BME280;47351;53.326;-6.298;2023-02-13T03:26:39;102758.85;;;4.81;78.75
61488;BME280;47351;53.326;-6.298;2023-02-13T03:29:52;102755.57;;;4.75;78.84
61488;BME280;47351;53.326;-6.298;2023-02-13T03:33:25;102753.91;;;4.73;79.52
61488;BME280;47351;53.326;-6.298;2023-02-13T03:36:42;102752.06;;;4.78;80.38
61488;BME280;47351;53.326;-6.298;2023-02-13T03:40:14;102754.56;;;4.89;81.01
61488;BME280;47351;53.326;-6.298;2023-02-13T03:43:26;102756.02;;;5.03;81.38
61488;BME280;47351;53.326;-6.298;2023-02-13T03:46:40;102752.42;;;5.12;81.36
61488;BME280;47351;53.326;-6.298;2023-02-13T03:49:52;102754.09;;;5.18;81.16
61488;BME280;47351;53.326;-6.298;2023-02-13T03:53:09;102752.10;;;5.16;80.31
61488;BME280;47351;53.326;-6.298;2023-02-13T03:56:21;102755.83;;;5.11;80.23
61488;BME280;47351;53.326;-6.298;2023-02-13T03:59:51;102746.94;;;5.12;80.78
61488;BME280;47351;53.326;-6.298;2023-02-13T04:03:11;102743.32;;;5.14;80.75
61488;BME280;47351;53.326;-6.298;2023-02-13T04:06:25;102745.39;;;5.11;80.45
61488;BME280;47351;53.326;-6.298;2023-02-13T04:09:38;102741.25;;;5.05;79.97
61488;BME280;47351;53.326;-6.298;2023-02-13T04:12:52;102741.33;;;5.00;79.99
61488;BME280;47351;53.326;-6.298;2023-02-13T04:16:08;102736.84;;;4.94;80.06
61488;BME280;47351;53.326;-6.298;2023-02-13T04:19:20;102734.41;;;4.89;80.12
61488;BME280;47351;53.326;-6.298;2023-02-13T04:22:31;102738.80;;;4.82;79.98
61488;BME280;47351;53.326;-6.298;2023-02-13T04:25:43;102736.69;;;4.74;79.92
61488;BME280;47351;53.326;-6.298;2023-02-13T04:28:55;102735.08;;;4.67;79.87
61488;BME280;47351;53.326;-6.298;2023-02-13T04:32:06;102724.95;;;4.60;80.01
61488;BME280;47351;53.326;-6.298;2023-02-13T04:35:18;102725.41;;;4.50;79.82
61488;BME280;47351;53.326;-6.298;2023-02-13T04:38:29;102731.26;;;4.42;79.91
61488;BME280;47351;53.326;-6.298;2023-02-13T04:41:40;102727.61;;;4.33;79.86
61488;BME280;47351;53.326;-6.298;2023-02-13T04:44:51;102724.89;;;4.26;80.16
61488;BME280;47351;53.326;-6.298;2023-02-13T04:48:02;102727.92;;;4.22;80.44
61488;BME280;47351;53.326;-6.298;2023-02-13T04:51:13;102732.56;;;4.16;80.56
61488;BME280;47351;53.326;-6.298;2023-02-13T04:54:24;102733.66;;;4.11;80.66
61488;BME280;47351;53.326;-6.298;2023-02-13T04:57:34;102735.02;;;4.08;80.87
61488;BME280;47351;53.326;-6.298;2023-02-13T05:00:45;102736.21;;;4.05;81.10
61488;BME280;47351;53.326;-6.298;2023-02-13T05:03:56;102740.56;;;4.03;81.36
61488;BME280;47351;53.326;-6.298;2023-02-13T05:07:07;102740.91;;;3.99;81.36
61488;BME280;47351;53.326;-6.298;2023-02-13T05:10:18;102738.65;;;3.94;81.40
61488;BME280;47351;53.326;-6.298;2023-02-13T05:13:29;102741.04;;;3.92;81.75
61488;BME280;47351;53.326;-6.298;2023-02-13T05:16:40;102747.51;;;3.93;82.27
61488;BME280;47351;53.326;-6.298;2023-02-13T05:19:51;102743.39;;;3.99;82.79
61488;BME280;47351;53.326;-6.298;2023-02-13T05:23:02;102740.23;;;4.07;83.41
61488;BME280;47351;53.326;-6.298;2023-02-13T05:26:31;102734.04;;;4.23;84.16
61488;BME280;47351;53.326;-6.298;2023-02-13T05:29:42;102733.93;;;4.42;84.75
61488;BME280;47351;53.326;-6.298;2023-02-13T05:32:54;102733.75;;;4.61;84.99
61488;BME280;47351;53.326;-6.298;2023-02-13T05:36:06;102730.30;;;4.78;84.90
61488;BME280;47351;53.326;-6.298;2023-02-13T05:39:24;102727.42;;;4.94;84.80
61488;BME280;47351;53.326;-6.298;2023-02-13T05:42:34;102716.86;;;5.08;84.74
61488;BME280;47351;53.326;-6.298;2023-02-13T05:45:44;102708.19;;;5.19;84.64
61488;BME280;47351;53.326;-6.298;2023-02-13T05:48:57;102708.65;;;5.32;84.45
61488;BME280;47351;53.326;-6.298;2023-02-13T05:52:08;102706.02;;;5.42;84.14
61488;BME280;47351;53.326;-6.298;2023-02-13T05:55:19;102702.30;;;5.49;83.85
61488;BME280;47351;53.326;-6.298;2023-02-13T05:58:24;102698.88;;;5.54;83.62
61488;BME280;47351;53.326;-6.298;2023-02-13T06:01:28;102702.85;;;5.56;83.41
61488;BME280;47351;53.326;-6.298;2023-02-13T06:04:40;102710.05;;;5.57;83.25
61488;BME280;47351;53.326;-6.298;2023-02-13T06:07:51;102699.95;;;5.57;83.11
61488;BME280;47351;53.326;-6.298;2023-02-13T06:11:03;102698.19;;;5.57;83.13
61488;BME280;47351;53.326;-6.298;2023-02-13T06:14:14;102689.86;;;5.57;83.02
61488;BME280;47351;53.326;-6.298;2023-02-13T06:17:25;102690.80;;;5.56;82.96
61488;BME280;47351;53.326;-6.298;2023-02-13T06:20:36;102690.66;;;5.55;83.00
61488;BME280;47351;53.326;-6.298;2023-02-13T06:23:48;102686.08;;;5.54;82.95
61488;BME280;47351;53.326;-6.298;2023-02-13T06:26:59;102687.09;;;5.52;82.79
61488;BME280;47351;53.326;-6.298;2023-02-13T06:30:11;102687.27;;;5.48;82.81
61488;BME280;47351;53.326;-6.298;2023-02-13T06:33:20;102686.25;;;5.44;82.81
61488;BME280;47351;53.326;-6.298;2023-02-13T06:36:32;102682.70;;;5.44;83.05
61488;BME280;47351;53.326;-6.298;2023-02-13T06:39:42;102679.33;;;5.44;83.04
61488;BME280;47351;53.326;-6.298;2023-02-13T06:42:53;102675.58;;;5.45;83.08
61488;BME280;47351;53.326;-6.298;2023-02-13T06:46:05;102675.89;;;5.46;83.18
61488;BME280;47351;53.326;-6.298;2023-02-13T06:49:16;102680.54;;;5.49;83.33
61488;BME280;47351;53.326;-6.298;2023-02-13T06:52:27;102684.36;;;5.53;83.34
61488;BME280;47351;53.326;-6.298;2023-02-13T06:55:38;102689.54;;;5.56;83.32
61488;BME280;47351;53.326;-6.298;2023-02-13T06:58:50;102686.11;;;5.57;83.31
61488;BME280;47351;53.326;-6.298;2023-02-13T07:02:00;102686.40;;;5.59;83.50
61488;BME280;47351;53.326;-6.298;2023-02-13T07:05:11;102688.93;;;5.58;83.25
61488;BME280;47351;53.326;-6.298;2023-02-13T07:08:15;102684.85;;;5.54;83.00
61488;BME280;47351;53.326;-6.298;2023-02-13T07:11:26;102682.83;;;5.49;82.71
61488;BME280;47351;53.326;-6.298;2023-02-13T07:14:37;102678.59;;;5.41;82.47
61488;BME280;47351;53.326;-6.298;2023-02-13T07:17:48;102678.50;;;5.36;82.60
61488;BME280;47351;53.326;-6.298;2023-02-13T07:21:04;102687.23;;;5.31;82.46
61488;BME280;47351;53.326;-6.298;2023-02-13T07:24:16;102693.92;;;5.25;82.30
61488;BME280;47351;53.326;-6.298;2023-02-13T07:27:26;102687.56;;;5.18;82.27
61488;BME280;47351;53.326;-6.298;2023-02-13T07:30:38;102686.55;;;5.09;82.19
61488;BME280;47351;53.326;-6.298;2023-02-13T07:33:42;102685.17;;;5.05;82.41
61488;BME280;47351;53.326;-6.298;2023-02-13T07:36:44;102689.84;;;5.00;82.29
61488;BME280;47351;53.326;-6.298;2023-02-13T07:39:54;102687.55;;;4.92;82.26
61488;BME280;47351;53.326;-6.298;2023-02-13T07:43:06;102693.47;;;4.83;82.15
61488;BME280;47351;53.326;-6.298;2023-02-13T07:46:17;102690.69;;;4.75;82.16
61488;BME280;47351;53.326;-6.298;2023-02-13T07:49:29;102686.52;;;4.65;82.20
61488;BME280;47351;53.326;-6.298;2023-02-13T07:52:33;102694.80;;;4.58;82.37
61488;BME280;47351;53.326;-6.298;2023-02-13T07:55:47;102695.20;;;4.53;82.63
61488;BME280;47351;53.326;-6.298;2023-02-13T07:58:58;102692.61;;;4.56;83.18
61488;BME280;47351;53.326;-6.298;2023-02-13T08:02:11;102693.39;;;4.58;83.39
61488;BME280;47351;53.326;-6.298;2023-02-13T08:05:23;102703.63;;;4.62;83.46
61488;BME280;47351;53.326;-6.298;2023-02-13T08:08:34;102706.14;;;4.69;83.56
61488;BME280;47351;53.326;-6.298;2023-02-13T08:11:54;102715.09;;;4.78;83.56
61488;BME280;47351;53.326;-6.298;2023-02-13T08:15:08;102715.97;;;4.86;83.38
61488;BME280;47351;53.326;-6.298;2023-02-13T08:18:19;102714.85;;;4.95;83.47
61488;BME280;47351;53.326;-6.298;2023-02-13T08:21:30;102717.98;;;5.03;83.54
61488;BME280;47351;53.326;-6.298;2023-02-13T08:24:43;102723.80;;;5.12;83.33
61488;BME280;47351;53.326;-6.298;2023-02-13T08:27:53;102722.10;;;5.21;83.38
61488;BME280;47351;53.326;-6.298;2023-02-13T08:31:09;102708.04;;;5.41;83.68
61488;BME280;47351;53.326;-6.298;2023-02-13T08:34:20;102718.42;;;5.60;83.26
61488;BME280;47351;53.326;-6.298;2023-02-13T08:37:31;102721.20;;;5.79;82.65
61488;BME280;47351;53.326;-6.298;2023-02-13T08:40:42;102720.88;;;5.92;81.98
61488;BME280;47351;53.326;-6.298;2023-02-13T08:43:43;102724.40;;;5.96;81.60
61488;BME280;47351;53.326;-6.298;2023-02-13T08:46:39;102725.30;;;5.99;81.27
61488;BME280;47351;53.326;-6.298;2023-02-13T08:49:43;102722.84;;;6.02;81.17
61488;BME280;47351;53.326;-6.298;2023-02-13T08:52:54;102721.40;;;6.13;81.24
61488;BME280;47351;53.326;-6.298;2023-02-13T08:56:05;102718.19;;;6.27;81.14
61488;BME280;47351;53.326;-6.298;2023-02-13T08:59:16;102719.80;;;6.40;80.97
61488;BME280;47351;53.326;-6.298;2023-02-13T09:02:27;102722.93;;;6.51;80.57
61488;BME280;47351;53.326;-6.298;2023-02-13T09:05:38;102725.21;;;6.65;80.31
61488;BME280;47351;53.326;-6.298;2023-02-13T09:08:49;102727.00;;;6.81;79.86
61488;BME280;47351;53.326;-6.298;2023-02-13T09:11:51;102720.48;;;6.96;79.48
61488;BME280;47351;53.326;-6.298;2023-02-13T09:15:03;102710.05;;;7.08;79.02
61488;BME280;47351;53.326;-6.298;2023-02-13T09:18:14;102723.42;;;7.17;78.71
61488;BME280;47351;53.326;-6.298;2023-02-13T09:21:23;102720.23;;;7.29;78.41
61488;BME280;47351;53.326;-6.298;2023-02-13T09:24:23;102711.36;;;7.41;77.88
61488;BME280;47351;53.326;-6.298;2023-02-13T09:27:34;102706.98;;;7.50;77.58
61488;BME280;47351;53.326;-6.298;2023-02-13T09:30:45;102712.33;;;7.52;77.20
61488;BME280;47351;53.326;-6.298;2023-02-13T09:33:52;102710.68;;;7.53;76.98
61488;BME280;47351;53.326;-6.298;2023-02-13T09:37:04;102709.30;;;7.58;76.79
61488;BME280;47351;53.326;-6.298;2023-02-13T09:40:19;102706.62;;;7.65;76.60
61488;BME280;47351;53.326;-6.298;2023-02-13T09:43:31;102709.86;;;7.70;76.15
61488;BME280;47351;53.326;-6.298;2023-02-13T09:46:44;102706.09;;;7.74;75.63
61488;BME280;47351;53.326;-6.298;2023-02-13T09:49:57;102700.15;;;7.75;75.28
61488;BME280;47351;53.326;-6.298;2023-02-13T09:53:10;102694.37;;;7.76;75.25
61488;BME280;47351;53.326;-6.298;2023-02-13T09:56:30;102693.10;;;7.80;75.04
61488;BME280;47351;53.326;-6.298;2023-02-13T09:59:49;102694.17;;;7.85;75.03
61488;BME280;47351;53.326;-6.298;2023-02-13T10:03:18;102705.22;;;7.91;74.96
61488;BME280;47351;53.326;-6.298;2023-02-13T10:06:31;102702.24;;;7.97;74.72
61488;BME280;47351;53.326;-6.298;2023-02-13T10:09:38;102711.09;;;8.00;74.40
61488;BME280;47351;53.326;-6.298;2023-02-13T10:12:57;102710.42;;;8.02;74.16
61488;BME280;47351;53.326;-6.298;2023-02-13T10:16:02;102703.01;;;8.02;74.07
61488;BME280;47351;53.326;-6.298;2023-02-13T10:19:22;102708.17;;;7.98;73.96
61488;BME280;47351;53.326;-6.298;2023-02-13T10:22:29;102705.06;;;7.97;73.61
61488;BME280;47351;53.326;-6.298;2023-02-13T10:25:26;102702.95;;;8.00;73.75
61488;BME280;47351;53.326;-6.298;2023-02-13T10:28:38;102703.04;;;8.01;73.80
61488;BME280;47351;53.326;-6.298;2023-02-13T10:31:46;102704.98;;;8.04;73.87
61488;BME280;47351;53.326;-6.298;2023-02-13T10:34:59;102699.51;;;8.12;73.95
61488;BME280;47351;53.326;-6.298;2023-02-13T10:38:10;102702.27;;;8.19;73.92
61488;BME280;47351;53.326;-6.298;2023-02-13T10:41:20;102709.22;;;8.28;73.86
61488;BME280;47351;53.326;-6.298;2023-02-13T10:44:36;102710.52;;;8.39;73.68
61488;BME280;47351;53.326;-6.298;2023-02-13T10:47:56;102711.88;;;8.52;73.64
61488;BME280;47351;53.326;-6.298;2023-02-13T10:51:06;102711.26;;;8.55;73.47
61488;BME280;47351;53.326;-6.298;2023-02-13T10:54:26;102708.46;;;8.55;73.29
61488;BME280;47351;53.326;-6.298;2023-02-13T10:57:34;102705.45;;;8.52;73.09
61488;BME280;47351;53.326;-6.298;2023-02-13T11:00:39;102709.90;;;8.52;72.90
61488;BME280;47351;53.326;-6.298;2023-02-13T11:04:03;102710.81;;;8.63;72.78
61488;BME280;47351;53.326;-6.298;2023-02-13T11:07:08;102705.17;;;8.87;72.49
61488;BME280;47351;53.326;-6.298;2023-02-13T11:10:04;102699.34;;;9.17;72.18
61488;BME280;47351;53.326;-6.298;2023-02-13T11:13:17;102694.60;;;9.53;71.54
61488;BME280;47351;53.326;-6.298;2023-02-13T11:16:29;102694.48;;;10.25;70.53
61488;BME280;47351;53.326;-6.298;2023-02-13T11:19:29;102681.73;;;12.63;67.94
61488;BME280;47351;53.326;-6.298;2023-02-13T11:22:28;102666.29;;;15.92;64.05
61488;BME280;47351;53.326;-6.298;2023-02-13T11:25:21;102655.63;;;17.12;60.36
61488;BME280;47351;53.326;-6.298;2023-02-13T11:28:14;102651.14;;;19.25;56.73
61488;BME280;47351;53.326;-6.298;2023-02-13T11:31:12;102650.61;;;19.85;54.10
61488;BME280;47351;53.326;-6.298;2023-02-13T11:37:21;102643.69;;;22.79;46.64
61488;BME280;47351;53.326;-6.298;2023-02-13T11:40:27;102628.86;;;23.99;44.23
61488;BME280;47351;53.326;-6.298;2023-02-13T11:43:17;102617.67;;;25.02;42.91
61488;BME280;47351;53.326;-6.298;2023-02-13T11:46:07;102620.39;;;26.36;41.30
61488;BME280;47351;53.326;-6.298;2023-02-13T11:49:00;102616.63;;;27.33;39.08
61488;BME280;47351;53.326;-6.298;2023-02-13T11:51:50;102610.77;;;28.07;36.99
61488;BME280;47351;53.326;-6.298;2023-02-13T11:54:40;102607.06;;;28.55;34.96
61488;BME280;47351;53.326;-6.298;2023-02-13T11:57:30;102605.64;;;28.93;34.03
61488;BME280;47351;53.326;-6.298;2023-02-13T12:03:26;102579.23;;;29.95;31.72
61488;BME280;47351;53.326;-6.298;2023-02-13T12:06:15;102580.88;;;30.30;30.89
61488;BME280;47351;53.326;-6.298;2023-02-13T12:09:07;102583.95;;;30.64;30.27
61488;BME280;47351;53.326;-6.298;2023-02-13T12:11:59;102584.80;;;31.10;29.80
61488;BME280;47351;53.326;-6.298;2023-02-13T12:14:48;102576.33;;;31.39;29.33
61488;BME280;47351;53.326;-6.298;2023-02-13T12:17:37;102571.55;;;32.00;29.19
61488;BME280;47351;53.326;-6.298;2023-02-13T12:20:32;102576.15;;;32.80;28.75
61488;BME280;47351;53.326;-6.298;2023-02-13T12:23:26;102573.80;;;33.55;27.66
61488;BME280;47351;53.326;-6.298;2023-02-13T12:26:22;102565.16;;;33.90;26.61
61488;BME280;47351;53.326;-6.298;2023-02-13T12:29:27;102558.39;;;33.92;25.08
61488;BME280;47351;53.326;-6.298;2023-02-13T12:32:24;102558.52;;;33.61;25.17
61488;BME280;47351;53.326;-6.298;2023-02-13T12:38:28;102548.46;;;33.24;24.62
61488;BME280;47351;53.326;-6.298;2023-02-13T12:41:22;102546.48;;;33.41;24.84
61488;BME280;47351;53.326;-6.298;2023-02-13T12:44:28;102546.84;;;33.46;24.03
61488;BME280;47351;53.326;-6.298;2023-02-13T12:47:19;102545.86;;;33.54;24.03
61488;BME280;47351;53.326;-6.298;2023-02-13T12:53:19;102531.80;;;33.38;23.41
61488;BME280;47351;53.326;-6.298;2023-02-13T12:56:21;102527.21;;;33.49;23.75
61488;BME280;47351;53.326;-6.298;2023-02-13T12:59:13;102526.90;;;33.60;23.07
61488;BME280;47351;53.326;-6.298;2023-02-13T13:02:20;102515.75;;;33.53;22.61
61488;BME280;47351;53.326;-6.298;2023-02-13T13:05:15;102517.34;;;33.59;22.77
61488;BME280;47351;53.326;-6.298;2023-02-13T13:08:13;102517.57;;;33.62;22.43
61488;BME280;47351;53.326;-6.298;2023-02-13T13:11:12;102519.14;;;33.63;22.30
61488;BME280;47351;53.326;-6.298;2023-02-13T13:14:06;102513.27;;;33.42;22.10
61488;BME280;47351;53.326;-6.298;2023-02-13T13:17:00;102512.79;;;33.50;22.12
61488;BME280;47351;53.326;-6.298;2023-02-13T13:19:53;102504.22;;;33.33;21.79
61488;BME280;47351;53.326;-6.298;2023-02-13T13:22:45;102497.14;;;32.91;21.66
61488;BME280;47351;53.326;-6.298;2023-02-13T13:25:41;102496.39;;;32.15;21.54
61488;BME280;47351;53.326;-6.298;2023-02-13T13:28:33;102493.36;;;31.15;22.70
61488;BME280;47351;53.326;-6.298;2023-02-13T13:31:23;102494.55;;;29.47;23.78
61488;BME280;47351;53.326;-6.298;2023-02-13T13:34:15;102488.61;;;27.57;25.05
61488;BME280;47351;53.326;-6.298;2023-02-13T13:37:08;102489.59;;;26.36;26.55
61488;BME280;47351;53.326;-6.298;2023-02-13T13:40:00;102483.34;;;25.30;27.55
61488;BME280;47351;53.326;-6.298;2023-02-13T13:42:52;102478.81;;;24.27;28.59
61488;BME280;47351;53.326;-6.298;2023-02-13T13:45:44;102480.02;;;23.94;28.62
61488;BME280;47351;53.326;-6.298;2023-02-13T13:48:37;102473.48;;;23.69;28.91
61488;BME280;47351;53.326;-6.298;2023-02-13T13:51:32;102473.40;;;22.77;30.05
61488;BME280;47351;53.326;-6.298;2023-02-13T13:54:33;102482.23;;;21.76;31.32
61488;BME280;47351;53.326;-6.298;2023-02-13T13:57:22;102484.63;;;20.87;32.31
61488;BME280;47351;53.326;-6.298;2023-02-13T14:03:24;102482.30;;;19.67;33.82
61488;BME280;47351;53.326;-6.298;2023-02-13T14:06:21;102483.84;;;19.07;34.80
61488;BME280;47351;53.326;-6.298;2023-02-13T14:09:36;102477.48;;;18.58;35.78
61488;BME280;47351;53.326;-6.298;2023-02-13T14:12:43;102470.13;;;18.15;36.65
61488;BME280;47351;53.326;-6.298;2023-02-13T14:15:49;102471.89;;;17.82;37.31
61488;BME280;47351;53.326;-6.298;2023-02-13T14:18:39;102463.31;;;17.59;37.96
61488;BME280;47351;53.326;-6.298;2023-02-13T14:21:33;102464.90;;;17.47;38.42
61488;BME280;47351;53.326;-6.298;2023-02-13T14:24:22;102464.75;;;17.45;38.68
61488;BME280;47351;53.326;-6.298;2023-02-13T14:27:17;102462.56;;;17.52;38.91
61488;BME280;47351;53.326;-6.298;2023-02-13T14:30:21;102468.77;;;17.67;38.78
61488;BME280;47351;53.326;-6.298;2023-02-13T14:33:21;102462.40;;;17.66;38.63
61488;BME280;47351;53.326;-6.298;2023-02-13T14:36:17;102459.70;;;17.57;38.92
61488;BME280;47351;53.326;-6.298;2023-02-13T14:39:15;102458.75;;;17.54;39.16
61488;BME280;47351;53.326;-6.298;2023-02-13T14:42:20;102453.21;;;17.59;39.25
61488;BME280;47351;53.326;-6.298;2023-02-13T14:45:11;102449.17;;;17.70;39.36
61488;BME280;47351;53.326;-6.298;2023-02-13T14:48:05;102443.76;;;17.78;39.15
61488;BME280;47351;53.326;-6.298;2023-02-13T14:50:55;102434.16;;;17.84;39.22
61488;BME280;47351;53.326;-6.298;2023-02-13T14:53:48;102433.42;;;17.96;39.09
61488;BME280;47351;53.326;-6.298;2023-02-13T14:56:39;102432.80;;;18.17;38.97
61488;BME280;47351;53.326;-6.298;2023-02-13T14:59:29;102427.77;;;18.31;38.68
61488;BME280;47351;53.326;-6.298;2023-02-13T15:02:22;102426.57;;;18.39;38.48
61488;BME280;47351;53.326;-6.298;2023-02-13T15:05:12;102427.55;;;18.43;37.87
61488;BME280;47351;53.326;-6.298;2023-02-13T15:08:04;102429.27;;;18.39;37.15
61488;BME280;47351;53.326;-6.298;2023-02-13T15:10:55;102431.34;;;18.41;37.35
61488;BME280;47351;53.326;-6.298;2023-02-13T15:13:44;102426.80;;;18.53;37.13
61488;BME280;47351;53.326;-6.298;2023-02-13T15:16:33;102420.72;;;18.61;37.25
61488;BME280;47351;53.326;-6.298;2023-02-13T15:19:22;102420.23;;;18.64;37.55
61488;BME280;47351;53.326;-6.298;2023-02-13T15:22:16;102420.59;;;18.61;37.59
61488;BME280;47351;53.326;-6.298;2023-02-13T15:25:06;102421.70;;;18.64;37.90
61488;BME280;47351;53.326;-6.298;2023-02-13T15:27:55;102422.81;;;18.62;37.92
61488;BME280;47351;53.326;-6.298;2023-02-13T15:30:55;102420.80;;;18.48;38.17
61488;BME280;47351;53.326;-6.298;2023-02-13T15:33:45;102421.20;;;18.33;38.38
61488;BME280;47351;53.326;-6.298;2023-02-13T15:36:34;102420.25;;;18.16;38.67
61488;BME280;47351;53.326;-6.298;2023-02-13T15:39:25;102421.75;;;18.00;38.86
61488;BME280;47351;53.326;-6.298;2023-02-13T15:42:13;102417.38;;;17.90;39.10
61488;BME280;47351;53.326;-6.298;2023-02-13T15:45:02;102416.98;;;17.78;39.31
61488;BME280;47351;53.326;-6.298;2023-02-13T15:47:54;102417.65;;;17.60;39.45
61488;BME280;47351;53.326;-6.298;2023-02-13T15:50:44;102419.05;;;17.42;39.56
61488;BME280;47351;53.326;-6.298;2023-02-13T15:53:34;102420.57;;;17.16;39.77
61488;BME280;47351;53.326;-6.298;2023-02-13T15:56:22;102423.10;;;16.95;40.37
61488;BME280;47351;53.326;-6.298;2023-02-13T15:59:11;102417.52;;;16.81;40.74
61488;BME280;47351;53.326;-6.298;2023-02-13T16:02:02;102416.28;;;16.50;40.67
61488;BME280;47351;53.326;-6.298;2023-02-13T16:04:52;102412.84;;;16.09;41.13
61488;BME280;47351;53.326;-6.298;2023-02-13T16:07:48;102407.90;;;15.80;41.66
61488;BME280;47351;53.326;-6.298;2023-02-13T16:10:37;102409.98;;;15.38;42.14
61488;BME280;47351;53.326;-6.298;2023-02-13T16:13:25;102412.56;;;14.98;42.54
61488;BME280;47351;53.326;-6.298;2023-02-13T16:16:14;102412.34;;;14.61;42.82
61488;BME280;47351;53.326;-6.298;2023-02-13T16:19:03;102414.55;;;14.25;43.65
61488;BME280;47351;53.326;-6.298;2023-02-13T16:21:52;102419.16;;;13.86;44.38
61488;BME280;47351;53.326;-6.298;2023-02-13T16:24:43;102426.11;;;13.46;45.24
61488;BME280;47351;53.326;-6.298;2023-02-13T16:27:33;102426.64;;;13.11;45.95